createdAt,value
2019-03-28T00:00:01.533Z,99.99
2019-03-28T00:01:01.521Z,99.99
2019-03-28T00:02:01.513Z,99.99
2019-03-28T00:03:02.065Z,99.99
2019-03-28T00:04:01.489Z,99.99
2019-03-28T00:05:01.490Z,99.99
2019-03-28T00:06:01.475Z,99.99
2019-03-28T00:07:01.471Z,99.99
2019-03-28T00:08:01.457Z,99.99
2019-03-28T00:09:01.444Z,99.99
2019-03-28T00:10:01.435Z,99.99
2019-03-28T00:11:01.424Z,99.99
2019-03-28T00:12:01.417Z,99.99
2019-03-28T00:13:01.408Z,99.99
2019-03-28T00:14:01.401Z,99.99
2019-03-28T00:15:02.813Z,99.99
2019-03-28T00:16:01.397Z,99.99
2019-03-28T00:17:01.367Z,99.99
2019-03-28T00:18:01.360Z,99.99
2019-03-28T00:19:01.351Z,99.99
2019-03-28T00:20:01.352Z,99.99
2019-03-28T00:21:01.338Z,99.99
2019-03-28T00:22:01.333Z,99.99
2019-03-28T00:23:01.320Z,99.99
2019-03-28T00:24:01.302Z,99.99
2019-03-28T00:25:01.296Z,99.99
2019-03-28T00:26:01.286Z,99.99
2019-03-28T00:27:01.277Z,99.99
2019-03-28T00:28:01.265Z,99.99
2019-03-28T00:29:01.258Z,99.99
2019-03-28T00:30:01.247Z,99.99
2019-03-28T00:31:01.253Z,99.99
2019-03-28T00:32:01.231Z,99.99
2019-03-28T00:33:01.223Z,99.99
2019-03-28T00:34:01.214Z,99.99
2019-03-28T00:35:01.203Z,99.99
2019-03-28T00:36:01.188Z,99.99
2019-03-28T00:37:01.182Z,99.99
2019-03-28T00:38:01.246Z,99.99
2019-03-28T00:39:01.876Z,99.99
2019-03-28T00:40:01.172Z,99.99
2019-03-28T00:41:01.151Z,99.99
2019-03-28T00:42:01.138Z,99.99
2019-03-28T00:43:01.126Z,99.99
2019-03-28T00:44:01.127Z,99.99
2019-03-28T00:45:01.119Z,99.99
2019-03-28T00:46:01.099Z,99.99
2019-03-28T00:47:01.092Z,99.99
2019-03-28T00:48:01.313Z,99.99
2019-03-28T00:49:01.070Z,99.99
2019-03-28T00:50:01.060Z,99.99
2019-03-28T00:51:01.051Z,99.99
2019-03-28T00:52:01.044Z,99.99
2019-03-28T00:53:01.034Z,99.99
2019-03-28T00:54:01.027Z,99.99
2019-03-28T00:55:01.036Z,99.99
2019-03-28T00:56:01.001Z,99.99
2019-03-28T00:57:00.997Z,99.99
2019-03-28T00:58:00.994Z,99.99
2019-03-28T00:59:00.978Z,99.99
2019-03-28T01:00:02.095Z,99.99
2019-03-28T01:01:00.969Z,99.99
2019-03-28T01:02:00.950Z,99.99
2019-03-28T01:03:00.938Z,99.99
2019-03-28T01:04:00.943Z,99.99
2019-03-28T01:05:00.930Z,99.99
2019-03-28T01:06:00.910Z,99.99
2019-03-28T01:07:00.906Z,99.99
2019-03-28T01:08:00.893Z,99.99
2019-03-28T01:09:03.949Z,99.99
2019-03-28T01:10:00.881Z,99.99
2019-03-28T01:11:00.864Z,99.99
2019-03-28T01:12:00.854Z,99.99
2019-03-28T01:13:00.845Z,99.99
2019-03-28T01:14:00.832Z,99.99
2019-03-28T01:15:00.820Z,99.99
2019-03-28T01:16:00.821Z,99.99
2019-03-28T01:17:00.805Z,99.99
2019-03-28T01:18:00.796Z,99.99
2019-03-28T01:19:00.787Z,99.99
2019-03-28T01:20:00.774Z,99.99
2019-03-28T01:21:00.765Z,99.99
2019-03-28T01:22:00.753Z,99.99
2019-03-28T01:23:00.746Z,99.99
2019-03-28T01:24:00.735Z,99.99
2019-03-28T01:25:01.613Z,99.99
2019-03-28T01:26:00.717Z,99.99
2019-03-28T01:27:00.706Z,99.99
2019-03-28T01:28:00.693Z,99.99
2019-03-28T01:29:00.687Z,99.99
2019-03-28T01:30:00.677Z,99.99
2019-03-28T01:31:00.668Z,99.99
2019-03-28T01:32:00.667Z,99.99
2019-03-28T01:33:00.645Z,99.99
2019-03-28T01:34:00.637Z,99.99
2019-03-28T01:35:00.626Z,99.99
2019-03-28T01:36:00.619Z,99.99
2019-03-28T01:37:00.609Z,99.99
2019-03-28T01:38:00.600Z,99.99
2019-03-28T01:39:00.590Z,99.99
2019-03-28T01:40:00.877Z,99.99
2019-03-28T01:41:00.565Z,99.99
2019-03-28T01:42:00.561Z,99.99
2019-03-28T01:43:00.593Z,99.99
2019-03-28T01:44:00.539Z,99.99
2019-03-28T01:45:00.528Z,99.99
2019-03-28T01:46:00.517Z,99.99
2019-03-28T01:47:00.503Z,99.99
2019-03-28T01:48:00.501Z,99.99
2019-03-28T01:49:03.497Z,99.99
2019-03-28T01:50:00.485Z,99.99
2019-03-28T01:51:00.468Z,99.99
2019-03-28T01:52:00.467Z,99.99
2019-03-28T01:53:00.447Z,99.99
2019-03-28T01:54:00.436Z,99.99
2019-03-28T01:55:00.428Z,99.99
2019-03-28T01:56:00.417Z,99.99
2019-03-28T01:57:10.320Z,99.99
2019-03-28T01:58:00.404Z,99.99
2019-03-28T01:59:00.390Z,99.99
2019-03-28T02:00:00.391Z,99.99
2019-03-28T02:01:02.797Z,99.99
2019-03-28T02:02:00.359Z,99.99
2019-03-28T02:03:00.354Z,99.99
2019-03-28T02:04:00.342Z,99.99
2019-03-28T02:05:00.328Z,99.99
2019-03-28T02:06:00.322Z,99.99
2019-03-28T02:07:00.308Z,99.99
2019-03-28T02:08:02.746Z,99.99
2019-03-28T02:09:00.309Z,99.99
2019-03-28T02:10:00.304Z,99.99
2019-03-28T02:11:00.268Z,99.99
2019-03-28T02:12:00.254Z,99.99
2019-03-28T02:13:00.241Z,99.99
2019-03-28T02:14:00.235Z,99.99
2019-03-28T02:15:00.355Z,99.99
2019-03-28T02:16:00.213Z,99.99
2019-03-28T02:17:00.205Z,99.99
2019-03-28T02:18:00.194Z,99.99
2019-03-28T02:19:00.180Z,99.99
2019-03-28T02:20:00.271Z,99.99
2019-03-28T02:21:00.164Z,99.99
2019-03-28T02:22:00.152Z,99.99
2019-03-28T02:23:00.149Z,99.99
2019-03-28T02:24:00.136Z,99.99
2019-03-28T02:25:00.171Z,99.99
2019-03-28T02:26:00.106Z,99.99
2019-03-28T02:27:00.129Z,99.99
2019-03-28T02:28:00.090Z,99.99
2019-03-28T02:29:00.080Z,99.99
2019-03-28T02:30:00.076Z,99.99
2019-03-28T02:31:00.061Z,99.99
2019-03-28T02:32:00.056Z,99.99
2019-03-28T02:33:00.247Z,99.99
2019-03-28T02:34:00.031Z,99.99
2019-03-28T02:35:00.021Z,99.99
2019-03-28T02:36:00.015Z,99.99
2019-03-28T02:36:59.996Z,99.99
2019-03-28T02:37:59.988Z,99.99
2019-03-28T02:38:59.999Z,99.99
2019-03-28T02:39:59.966Z,99.99
2019-03-28T02:40:59.961Z,99.99
2019-03-28T02:41:59.948Z,99.99
2019-03-28T02:42:59.943Z,99.99
2019-03-28T02:43:59.958Z,99.99
2019-03-28T02:44:59.917Z,99.99
2019-03-28T02:45:59.902Z,99.99
2019-03-28T02:46:59.908Z,99.99
2019-03-28T02:47:59.885Z,99.99
2019-03-28T02:48:59.880Z,99.99
2019-03-28T02:49:59.859Z,99.99
2019-03-28T02:50:59.854Z,99.99
2019-03-28T02:51:59.842Z,99.99
2019-03-28T02:52:59.834Z,99.99
2019-03-28T02:53:59.822Z,99.99
2019-03-28T02:54:59.819Z,99.99
2019-03-28T02:55:59.802Z,99.99
2019-03-28T02:56:59.791Z,99.99
2019-03-28T02:57:59.777Z,99.99
2019-03-28T02:58:59.768Z,99.99
2019-03-28T02:59:59.773Z,99.99
2019-03-28T03:00:59.749Z,99.99
2019-03-28T03:01:59.739Z,99.99
2019-03-28T03:02:59.737Z,99.99
2019-03-28T03:03:59.719Z,99.99
2019-03-28T03:04:59.707Z,99.99
2019-03-28T03:05:59.707Z,99.99
2019-03-28T03:06:59.700Z,99.99
2019-03-28T03:07:59.671Z,99.99
2019-03-28T03:08:59.885Z,99.99
2019-03-28T03:09:59.648Z,99.99
2019-03-28T03:10:59.661Z,99.99
2019-03-28T03:11:59.644Z,99.99
2019-03-28T03:12:59.624Z,99.99
2019-03-28T03:13:59.615Z,99.99
2019-03-28T03:14:59.617Z,99.99
2019-03-28T03:15:59.589Z,99.99
2019-03-28T03:16:59.580Z,99.99
2019-03-28T03:17:59.568Z,99.99
2019-03-28T03:18:59.851Z,99.99
2019-03-28T03:19:59.548Z,99.99
2019-03-28T03:20:59.540Z,99.99
2019-03-28T03:21:59.530Z,99.99
2019-03-28T03:22:59.518Z,99.99
2019-03-28T03:23:59.512Z,99.99
2019-03-28T03:24:59.509Z,99.99
2019-03-28T03:25:59.494Z,99.99
2019-03-28T03:26:59.483Z,99.99
2019-03-28T03:27:59.584Z,99.99
2019-03-28T03:28:59.477Z,99.99
2019-03-28T03:29:59.444Z,99.99
2019-03-28T03:30:59.436Z,99.99
2019-03-28T03:31:59.438Z,99.99
2019-03-28T03:32:59.421Z,99.99
2019-03-28T03:33:59.412Z,99.99
2019-03-28T03:35:00.366Z,99.99
2019-03-28T03:35:59.387Z,99.99
2019-03-28T03:36:59.377Z,99.99
2019-03-28T03:37:59.369Z,99.99
2019-03-28T03:38:59.369Z,99.99
2019-03-28T03:39:59.344Z,99.99
2019-03-28T03:40:59.334Z,99.99
2019-03-28T03:41:59.322Z,99.99
2019-03-28T03:42:59.335Z,99.99
2019-03-28T03:43:59.322Z,99.99
2019-03-28T03:44:59.298Z,99.99
2019-03-28T03:45:59.294Z,99.99
2019-03-28T03:46:59.274Z,99.99
2019-03-28T03:47:59.269Z,99.99
2019-03-28T03:48:59.255Z,99.99
2019-03-28T03:49:59.244Z,99.99
2019-03-28T03:50:59.245Z,99.99
2019-03-28T03:51:59.224Z,99.99
2019-03-28T03:52:59.232Z,99.99
2019-03-28T03:53:59.203Z,99.99
2019-03-28T03:54:59.291Z,99.99
2019-03-28T03:55:59.184Z,99.99
2019-03-28T03:56:59.205Z,99.99
2019-03-28T03:58:14.351Z,99.99
2019-03-28T03:58:59.157Z,99.99
2019-03-28T03:59:59.146Z,99.99
2019-03-28T04:00:59.134Z,99.99
2019-03-28T04:01:59.152Z,99.99
2019-03-28T04:02:59.122Z,99.99
2019-03-28T04:03:59.119Z,99.99
2019-03-28T04:04:59.097Z,99.99
2019-03-28T04:05:59.103Z,99.99
2019-03-28T04:06:59.076Z,99.99
2019-03-28T04:07:59.989Z,99.99
2019-03-28T04:08:59.052Z,99.99
2019-03-28T04:09:59.044Z,99.99
2019-03-28T04:10:59.042Z,99.99
2019-03-28T04:11:59.034Z,99.99
2019-03-28T04:12:59.013Z,99.99
2019-03-28T04:13:59.007Z,99.99
2019-03-28T04:14:59.022Z,99.99
2019-03-28T04:15:58.989Z,99.99
2019-03-28T04:16:58.982Z,99.99
2019-03-28T04:17:58.977Z,99.99
2019-03-28T04:18:58.969Z,99.99
2019-03-28T04:19:58.989Z,99.99
2019-03-28T04:20:58.934Z,99.99
2019-03-28T04:21:58.947Z,99.99
2019-03-28T04:22:58.922Z,99.99
2019-03-28T04:23:58.908Z,99.99
2019-03-28T04:24:58.902Z,99.99
2019-03-28T04:25:58.892Z,99.99
2019-03-28T04:26:58.887Z,99.99
2019-03-28T04:27:58.873Z,99.99
2019-03-28T04:28:58.859Z,99.99
2019-03-28T04:29:58.866Z,99.99
2019-03-28T04:30:58.842Z,99.99
2019-03-28T04:31:58.835Z,99.99
2019-03-28T04:32:58.900Z,99.99
2019-03-28T04:33:58.818Z,99.99
2019-03-28T04:34:59.556Z,99.99
2019-03-28T04:35:58.794Z,99.99
2019-03-28T04:36:58.798Z,99.99
2019-03-28T04:37:58.932Z,99.99
2019-03-28T04:38:58.764Z,99.99
2019-03-28T04:39:58.751Z,99.99
2019-03-28T04:40:58.743Z,99.99
2019-03-28T04:41:58.732Z,99.99
2019-03-28T04:42:58.721Z,99.99
2019-03-28T04:43:58.725Z,99.99
2019-03-28T04:44:58.705Z,99.99
2019-03-28T04:45:58.700Z,99.99
2019-03-28T04:46:58.682Z,99.99
2019-03-28T04:47:58.671Z,99.99
2019-03-28T04:48:58.664Z,99.99
2019-03-28T04:49:58.659Z,99.99
2019-03-28T04:50:58.647Z,99.99
2019-03-28T04:51:58.629Z,99.99
2019-03-28T04:52:58.619Z,99.99
2019-03-28T04:53:58.627Z,99.99
2019-03-28T04:54:58.602Z,99.99
2019-03-28T04:55:58.599Z,99.99
2019-03-28T04:56:58.595Z,99.99
2019-03-28T04:57:58.568Z,99.99
2019-03-28T04:58:58.562Z,99.99
2019-03-28T04:59:58.555Z,99.99
2019-03-28T05:00:59.447Z,99.99
2019-03-28T05:02:02.847Z,99.99
2019-03-28T05:02:58.533Z,99.99
2019-03-28T05:03:58.524Z,99.99
2019-03-28T05:04:58.513Z,99.99
2019-03-28T05:05:58.624Z,99.99
2019-03-28T05:06:58.499Z,99.99
2019-03-28T05:07:58.480Z,99.99
2019-03-28T05:08:58.501Z,99.99
2019-03-28T05:09:58.459Z,99.99
2019-03-28T05:10:58.447Z,99.99
2019-03-28T05:11:58.475Z,99.99
2019-03-28T05:12:58.425Z,99.99
2019-03-28T05:13:58.421Z,99.99
2019-03-28T05:14:58.409Z,99.99
2019-03-28T05:15:58.414Z,99.99
2019-03-28T05:16:58.394Z,99.99
2019-03-28T05:17:58.437Z,99.99
2019-03-28T05:18:58.377Z,99.99
2019-03-28T05:19:58.371Z,99.99
2019-03-28T05:20:58.363Z,99.99
2019-03-28T05:21:58.346Z,99.99
2019-03-28T05:22:58.334Z,99.99
2019-03-28T05:23:58.320Z,99.99
2019-03-28T05:24:58.750Z,99.99
2019-03-28T05:25:58.307Z,99.99
2019-03-28T05:26:58.295Z,99.99
2019-03-28T05:27:58.819Z,99.99
2019-03-28T05:28:59.316Z,99.99
2019-03-28T05:29:58.262Z,99.99
2019-03-28T05:30:58.257Z,99.99
2019-03-28T05:31:58.249Z,99.99
2019-03-28T05:32:58.240Z,99.99
2019-03-28T05:33:58.228Z,99.99
2019-03-28T05:34:58.219Z,99.99
2019-03-28T05:35:58.207Z,99.99
2019-03-28T05:36:58.195Z,99.99
2019-03-28T05:37:58.186Z,99.99
2019-03-28T05:38:58.179Z,99.99
2019-03-28T05:39:58.170Z,99.99
2019-03-28T05:40:58.162Z,99.99
2019-03-28T05:41:58.157Z,99.99
2019-03-28T05:42:58.142Z,99.99
2019-03-28T05:43:58.136Z,99.99
2019-03-28T05:44:58.120Z,99.99
2019-03-28T05:45:58.114Z,99.99
2019-03-28T05:46:58.105Z,99.99
2019-03-28T05:48:00.302Z,99.99
2019-03-28T05:48:58.086Z,99.99
2019-03-28T05:49:58.073Z,99.99
2019-03-28T05:50:58.092Z,99.99
2019-03-28T05:51:58.053Z,99.99
2019-03-28T05:52:58.048Z,99.99
2019-03-28T05:53:58.053Z,99.99
2019-03-28T05:54:58.027Z,99.99
2019-03-28T05:55:58.021Z,99.99
2019-03-28T05:56:58.010Z,99.99
2019-03-28T05:57:57.996Z,99.99
2019-03-28T05:59:10.143Z,99.99
2019-03-28T05:59:57.979Z,99.99
2019-03-28T06:00:57.973Z,99.99
2019-03-28T06:01:58.337Z,99.99
2019-03-28T06:02:57.952Z,99.99
2019-03-28T06:03:57.941Z,99.99
2019-03-28T06:04:57.932Z,99.99
2019-03-28T06:05:57.927Z,99.99
2019-03-28T06:06:57.911Z,99.99
2019-03-28T06:07:57.905Z,99.99
2019-03-28T06:08:57.889Z,99.99
2019-03-28T06:09:57.880Z,99.99
2019-03-28T06:10:57.877Z,99.99
2019-03-28T06:11:57.865Z,99.99
2019-03-28T06:12:57.859Z,99.99
2019-03-28T06:13:57.848Z,99.99
2019-03-28T06:14:57.840Z,99.99
2019-03-28T06:15:57.867Z,99.99
2019-03-28T06:16:57.817Z,99.99
2019-03-28T06:17:57.814Z,99.99
2019-03-28T06:18:57.799Z,99.99
2019-03-28T06:19:57.794Z,99.99
2019-03-28T06:20:59.570Z,99.99
2019-03-28T06:21:57.825Z,99.99
2019-03-28T06:22:57.765Z,99.99
2019-03-28T06:23:57.761Z,99.99
2019-03-28T06:24:57.748Z,99.99
2019-03-28T06:25:57.739Z,99.99
2019-03-28T06:26:57.729Z,99.99
2019-03-28T06:27:57.723Z,99.99
2019-03-28T06:28:57.710Z,99.99
2019-03-28T06:29:57.701Z,99.99
2019-03-28T06:30:57.689Z,99.99
2019-03-28T06:31:57.690Z,99.99
2019-03-28T06:32:58.974Z,99.99
2019-03-28T06:33:57.666Z,99.99
2019-03-28T06:34:57.655Z,99.99
2019-03-28T06:35:57.650Z,99.99
2019-03-28T06:36:57.641Z,99.99
2019-03-28T06:37:58.454Z,99.99
2019-03-28T06:38:57.624Z,99.99
2019-03-28T06:39:57.610Z,99.99
2019-03-28T06:40:57.599Z,99.99
2019-03-28T06:41:57.602Z,99.99
2019-03-28T06:42:57.580Z,99.99
2019-03-28T06:43:57.577Z,99.99
2019-03-28T06:44:57.569Z,99.99
2019-03-28T06:45:57.558Z,99.99
2019-03-28T06:46:57.551Z,99.99
2019-03-28T06:47:57.538Z,99.99
2019-03-28T06:48:57.533Z,99.99
2019-03-28T06:49:57.534Z,99.99
2019-03-28T06:50:57.527Z,99.99
2019-03-28T06:51:57.513Z,99.99
2019-03-28T06:52:57.500Z,99.99
2019-03-28T06:53:57.487Z,99.99
2019-03-28T06:54:57.478Z,99.99
2019-03-28T06:55:57.470Z,99.99
2019-03-28T06:56:57.464Z,99.99
2019-03-28T06:57:57.454Z,99.99
2019-03-28T06:58:57.448Z,99.99
2019-03-28T06:59:57.437Z,99.99
2019-03-28T07:00:57.425Z,99.99
2019-03-28T07:01:57.417Z,99.65
2019-03-28T07:02:57.409Z,99.55
2019-03-28T07:03:57.404Z,98.98
2019-03-28T07:04:57.404Z,99.36
2019-03-28T07:05:57.385Z,98.50
2019-03-28T07:06:57.376Z,98.50
2019-03-28T07:07:58.332Z,98.50
2019-03-28T07:08:57.366Z,98.03
2019-03-28T07:09:57.351Z,97.55
2019-03-28T07:10:58.172Z,96.98
2019-03-28T07:11:57.414Z,96.12
2019-03-28T07:12:57.325Z,95.94
2019-03-28T07:13:57.316Z,96.03
2019-03-28T07:14:59.548Z,96.41
2019-03-28T07:15:57.307Z,95.65
2019-03-28T07:16:57.304Z,95.08
2019-03-28T07:17:57.285Z,95.27
2019-03-28T07:18:57.280Z,95.65
2019-03-28T07:19:57.283Z,96.08
2019-03-28T07:20:57.259Z,96.41
2019-03-28T07:21:57.253Z,97.03
2019-03-28T07:22:57.250Z,96.55
2019-03-28T07:23:57.235Z,98.74
2019-03-28T07:24:57.228Z,96.27
2019-03-28T07:25:57.223Z,96.94
2019-03-28T07:26:57.210Z,98.36
2019-03-28T07:27:57.214Z,98.84
2019-03-28T07:28:57.197Z,99.41
2019-03-28T07:29:57.190Z,99.22
2019-03-28T07:30:57.193Z,97.46
2019-03-28T07:31:57.170Z,96.51
2019-03-28T07:32:57.164Z,95.17
2019-03-28T07:33:57.154Z,95.08
2019-03-28T07:34:57.151Z,94.60
2019-03-28T07:35:57.142Z,93.74
2019-03-28T07:36:57.137Z,93.27
2019-03-28T07:37:57.125Z,93.55
2019-03-28T07:38:57.118Z,94.13
2019-03-28T07:39:57.112Z,93.08
2019-03-28T07:40:57.114Z,92.98
2019-03-28T07:41:57.099Z,92.08
2019-03-28T07:42:57.191Z,92.27
2019-03-28T07:43:57.081Z,92.08
2019-03-28T07:44:58.097Z,91.98
2019-03-28T07:45:57.067Z,92.84
2019-03-28T07:46:57.065Z,92.84
2019-03-28T07:47:57.054Z,92.84
2019-03-28T07:48:57.045Z,91.88
2019-03-28T07:49:57.043Z,91.41
2019-03-28T07:50:57.035Z,90.26
2019-03-28T07:51:57.039Z,89.03
2019-03-28T07:52:57.018Z,88.93
2019-03-28T07:53:57.013Z,89.69
2019-03-28T07:54:57.009Z,89.69
2019-03-28T07:55:57.500Z,89.69
2019-03-28T07:56:56.992Z,89.12
2019-03-28T07:57:56.987Z,88.74
2019-03-28T07:58:56.979Z,88.64
2019-03-28T08:00:04.202Z,88.45
2019-03-28T08:00:56.965Z,88.26
2019-03-28T08:01:56.960Z,88.07
2019-03-28T08:02:58.476Z,88.93
2019-03-28T08:03:56.954Z,88.93
2019-03-28T08:04:56.967Z,89.45
2019-03-28T08:05:56.934Z,89.17
2019-03-28T08:06:56.924Z,89.07
2019-03-28T08:07:56.921Z,88.59
2019-03-28T08:08:56.951Z,88.31
2019-03-28T08:09:56.909Z,88.02
2019-03-28T08:10:56.900Z,88.31
2019-03-28T08:11:56.895Z,88.59
2019-03-28T08:12:56.888Z,88.12
2019-03-28T08:13:56.885Z,87.45
2019-03-28T08:14:56.879Z,87.35
2019-03-28T08:15:56.865Z,86.69
2019-03-28T08:16:56.865Z,87.26
2019-03-28T08:17:56.942Z,88.21
2019-03-28T08:18:56.854Z,88.31
2019-03-28T08:19:56.852Z,88.69
2019-03-28T08:20:56.838Z,87.45
2019-03-28T08:21:56.833Z,87.16
2019-03-28T08:22:56.831Z,87.54
2019-03-28T08:23:56.818Z,87.54
2019-03-28T08:24:56.813Z,87.59
2019-03-28T08:25:56.810Z,87.68
2019-03-28T08:26:56.805Z,86.92
2019-03-28T08:27:57.728Z,86.82
2019-03-28T08:28:56.788Z,85.77
2019-03-28T08:29:57.959Z,85.39
2019-03-28T08:30:56.784Z,85.49
2019-03-28T08:31:56.779Z,85.58
2019-03-28T08:32:56.767Z,85.39
2019-03-28T08:33:56.764Z,85.30
2019-03-28T08:34:56.757Z,85.49
2019-03-28T08:35:56.753Z,85.49
2019-03-28T08:36:56.747Z,84.92
2019-03-28T08:37:56.737Z,85.30
2019-03-28T08:38:56.731Z,84.63
2019-03-28T08:39:56.730Z,84.29
2019-03-28T08:40:56.721Z,84.86
2019-03-28T08:41:56.716Z,84.48
2019-03-28T08:42:56.707Z,84.86
2019-03-28T08:43:56.707Z,84.48
2019-03-28T08:44:56.700Z,84.96
2019-03-28T08:45:56.700Z,84.48
2019-03-28T08:46:56.695Z,83.91
2019-03-28T08:47:56.696Z,84.10
2019-03-28T08:48:56.679Z,83.14
2019-03-28T08:49:58.727Z,82.86
2019-03-28T08:50:56.667Z,82.19
2019-03-28T08:51:56.663Z,81.37
2019-03-28T08:52:56.658Z,81.56
2019-03-28T08:53:56.657Z,81.47
2019-03-28T08:54:56.647Z,81.95
2019-03-28T08:55:56.641Z,81.76
2019-03-28T08:56:56.636Z,81.66
2019-03-28T08:57:56.641Z,81.37
2019-03-28T08:58:56.628Z,81.09
2019-03-28T08:59:56.631Z,80.61
2019-03-28T09:00:56.620Z,80.80
2019-03-28T09:01:56.614Z,80.90
2019-03-28T09:02:56.621Z,80.22
2019-03-28T09:03:56.603Z,80.13
2019-03-28T09:04:56.596Z,79.75
2019-03-28T09:05:56.592Z,80.04
2019-03-28T09:06:56.594Z,79.79
2019-03-28T09:07:56.582Z,80.17
2019-03-28T09:08:56.578Z,79.79
2019-03-28T09:09:56.574Z,79.98
2019-03-28T09:10:56.570Z,79.41
2019-03-28T09:11:56.566Z,79.41
2019-03-28T09:12:56.561Z,79.31
2019-03-28T09:13:56.557Z,78.74
2019-03-28T09:14:56.551Z,78.83
2019-03-28T09:15:56.551Z,78.64
2019-03-28T09:16:56.543Z,77.69
2019-03-28T09:17:56.537Z,77.84
2019-03-28T09:18:56.533Z,78.41
2019-03-28T09:19:56.534Z,78.89
2019-03-28T09:20:56.524Z,78.89
2019-03-28T09:21:56.517Z,78.89
2019-03-28T09:22:56.512Z,78.89
2019-03-28T09:23:56.509Z,79.17
2019-03-28T09:24:56.505Z,79.65
2019-03-28T09:25:56.501Z,79.94
2019-03-28T09:26:56.498Z,80.32
2019-03-28T09:27:56.494Z,80.41
2019-03-28T09:28:56.485Z,80.80
2019-03-28T09:29:56.483Z,80.61
2019-03-28T09:30:56.479Z,80.51
2019-03-28T09:31:56.470Z,80.61
2019-03-28T09:32:56.463Z,80.70
2019-03-28T09:33:56.460Z,80.51
2019-03-28T09:34:56.457Z,80.13
2019-03-28T09:35:56.452Z,80.41
2019-03-28T09:36:56.450Z,80.32
2019-03-28T09:37:56.462Z,80.32
2019-03-28T09:38:56.446Z,80.13
2019-03-28T09:39:56.435Z,79.94
2019-03-28T09:40:56.432Z,80.32
2019-03-28T09:41:56.422Z,80.61
2019-03-28T09:42:56.421Z,80.61
2019-03-28T09:43:56.414Z,80.32
2019-03-28T09:44:56.604Z,80.32
2019-03-28T09:45:56.402Z,80.51
2019-03-28T09:46:56.637Z,79.94
2019-03-28T09:47:56.400Z,80.41
2019-03-28T09:48:56.402Z,80.51
2019-03-28T09:49:56.384Z,80.22
2019-03-28T09:50:56.383Z,80.51
2019-03-28T09:51:56.372Z,80.22
2019-03-28T09:52:56.376Z,80.13
2019-03-28T09:53:56.364Z,80.13
2019-03-28T09:54:56.358Z,80.90
2019-03-28T09:55:56.358Z,80.32
2019-03-28T09:56:56.351Z,80.51
2019-03-28T09:57:56.344Z,79.94
2019-03-28T09:58:56.345Z,80.99
2019-03-28T09:59:56.331Z,81.66
2019-03-28T10:01:02.717Z,81.76
2019-03-28T10:01:56.332Z,81.37
2019-03-28T10:02:56.322Z,80.51
2019-03-28T10:03:56.313Z,80.41
2019-03-28T10:04:56.308Z,79.94
2019-03-28T10:05:56.303Z,79.94
2019-03-28T10:06:56.295Z,79.36
2019-03-28T10:07:56.295Z,80.13
2019-03-28T10:08:56.287Z,79.36
2019-03-28T10:09:56.707Z,79.08
2019-03-28T10:10:56.282Z,78.79
2019-03-28T10:11:56.269Z,78.99
2019-03-28T10:12:56.267Z,79.17
2019-03-28T10:13:56.261Z,79.46
2019-03-28T10:14:56.257Z,79.46
2019-03-28T10:15:57.470Z,79.75
2019-03-28T10:16:56.249Z,79.98
2019-03-28T10:17:56.243Z,79.60
2019-03-28T10:18:56.237Z,79.22
2019-03-28T10:19:56.232Z,78.99
2019-03-28T10:20:56.230Z,79.08
2019-03-28T10:21:56.224Z,79.36
2019-03-28T10:22:56.218Z,79.27
2019-03-28T10:23:56.209Z,79.75
2019-03-28T10:24:56.207Z,80.22
2019-03-28T10:25:56.200Z,79.94
2019-03-28T10:26:56.198Z,80.04
2019-03-28T10:27:56.196Z,80.32
2019-03-28T10:28:56.191Z,79.56
2019-03-28T10:29:56.183Z,79.17
2019-03-28T10:30:56.179Z,79.75
2019-03-28T10:31:56.172Z,80.13
2019-03-28T10:32:56.166Z,80.07
2019-03-28T10:33:56.165Z,80.17
2019-03-28T10:34:56.160Z,80.04
2019-03-28T10:35:56.696Z,79.41
2019-03-28T10:36:56.146Z,79.31
2019-03-28T10:37:56.144Z,79.22
2019-03-28T10:38:56.137Z,78.83
2019-03-28T10:39:56.135Z,78.26
2019-03-28T10:40:56.130Z,77.50
2019-03-28T10:41:56.126Z,77.82
2019-03-28T10:42:56.122Z,77.72
2019-03-28T10:43:56.114Z,77.82
2019-03-28T10:44:56.112Z,77.92
2019-03-28T10:45:56.106Z,78.01
2019-03-28T10:46:56.103Z,77.53
2019-03-28T10:47:56.102Z,77.63
2019-03-28T10:48:56.096Z,77.00
2019-03-28T10:49:56.089Z,75.85
2019-03-28T10:50:56.084Z,75.05
2019-03-28T10:51:56.090Z,74.99
2019-03-28T10:52:56.078Z,75.27
2019-03-28T10:53:56.075Z,74.51
2019-03-28T10:54:56.075Z,73.94
2019-03-28T10:55:56.067Z,73.55
2019-03-28T10:56:57.976Z,73.65
2019-03-28T10:57:56.061Z,73.75
2019-03-28T10:58:56.060Z,73.84
2019-03-28T10:59:56.052Z,73.84
2019-03-28T11:00:56.512Z,73.55
2019-03-28T11:01:56.046Z,73.94
2019-03-28T11:02:56.085Z,74.32
2019-03-28T11:03:56.504Z,74.41
2019-03-28T11:04:56.036Z,74.65
2019-03-28T11:05:56.032Z,74.55
2019-03-28T11:06:56.028Z,73.97
2019-03-28T11:07:56.027Z,73.59
2019-03-28T11:08:56.024Z,73.02
2019-03-28T11:09:56.019Z,72.83
2019-03-28T11:10:56.543Z,73.21
2019-03-28T11:11:56.016Z,73.88
2019-03-28T11:12:56.011Z,73.59
2019-03-28T11:13:56.008Z,73.69
2019-03-28T11:14:56.008Z,73.79
2019-03-28T11:15:56.011Z,72.92
2019-03-28T11:16:56.076Z,72.25
2019-03-28T11:17:56.001Z,72.34
2019-03-28T11:18:55.995Z,71.20
2019-03-28T11:19:56.295Z,70.91
2019-03-28T11:20:55.989Z,70.85
2019-03-28T11:21:55.990Z,70.85
2019-03-28T11:22:55.985Z,70.28
2019-03-28T11:23:55.988Z,70.56
2019-03-28T11:24:55.978Z,70.47
2019-03-28T11:25:57.470Z,70.56
2019-03-28T11:26:55.972Z,70.66
2019-03-28T11:27:55.979Z,70.66
2019-03-28T11:28:55.971Z,70.56
2019-03-28T11:29:55.974Z,71.23
2019-03-28T11:30:55.965Z,70.76
2019-03-28T11:31:55.957Z,69.60
2019-03-28T11:32:55.956Z,69.89
2019-03-28T11:33:55.956Z,69.23
2019-03-28T11:34:55.956Z,69.26
2019-03-28T11:35:55.953Z,68.55
2019-03-28T11:36:55.949Z,69.70
2019-03-28T11:37:55.944Z,70.47
2019-03-28T11:38:55.945Z,70.70
2019-03-28T11:39:55.942Z,70.31
2019-03-28T11:40:55.944Z,70.03
2019-03-28T11:41:55.939Z,70.31
2019-03-28T11:42:55.937Z,70.41
2019-03-28T11:43:55.929Z,68.21
2019-03-28T11:44:55.931Z,68.46
2019-03-28T11:45:55.927Z,68.94
2019-03-28T11:46:55.927Z,69.23
2019-03-28T11:47:55.925Z,70.28
2019-03-28T11:48:55.923Z,70.47
2019-03-28T11:49:55.978Z,69.80
2019-03-28T11:50:55.927Z,69.80
2019-03-28T11:51:55.912Z,69.23
2019-03-28T11:52:55.913Z,69.51
2019-03-28T11:53:55.911Z,69.80
2019-03-28T11:54:55.908Z,69.89
2019-03-28T11:55:55.904Z,68.94
2019-03-28T11:56:55.900Z,69.03
2019-03-28T11:57:56.591Z,68.65
2019-03-28T11:58:55.896Z,67.31
2019-03-28T11:59:57.987Z,66.93
2019-03-28T12:00:55.892Z,66.25
2019-03-28T12:02:00.558Z,65.94
2019-03-28T12:02:55.888Z,65.94
2019-03-28T12:03:55.881Z,66.13
2019-03-28T12:04:55.879Z,66.51
2019-03-28T12:05:55.876Z,66.89
2019-03-28T12:06:55.884Z,66.61
2019-03-28T12:07:55.872Z,67.18
2019-03-28T12:08:56.082Z,66.41
2019-03-28T12:09:55.874Z,67.18
2019-03-28T12:10:55.872Z,66.70
2019-03-28T12:11:55.860Z,66.80
2019-03-28T12:12:55.858Z,66.80
2019-03-28T12:13:55.855Z,66.89
2019-03-28T12:14:55.850Z,66.89
2019-03-28T12:15:55.844Z,65.36
2019-03-28T12:16:55.842Z,63.64
2019-03-28T12:17:55.839Z,63.35
2019-03-28T12:18:55.835Z,63.54
2019-03-28T12:19:55.837Z,64.31
2019-03-28T12:20:55.830Z,64.22
2019-03-28T12:21:55.839Z,64.31
2019-03-28T12:22:56.186Z,64.31
2019-03-28T12:23:55.817Z,64.59
2019-03-28T12:24:55.815Z,65.08
2019-03-28T12:25:55.895Z,64.98
2019-03-28T12:26:55.810Z,65.36
2019-03-28T12:27:55.805Z,65.94
2019-03-28T12:28:55.800Z,65.84
2019-03-28T12:29:55.800Z,65.74
2019-03-28T12:30:55.794Z,65.84
2019-03-28T12:31:55.793Z,65.94
2019-03-28T12:32:55.797Z,65.08
2019-03-28T12:33:55.816Z,64.40
2019-03-28T12:34:55.785Z,64.59
2019-03-28T12:35:55.781Z,64.98
2019-03-28T12:36:55.774Z,64.98
2019-03-28T12:37:55.771Z,64.88
2019-03-28T12:38:55.769Z,64.31
2019-03-28T12:39:55.765Z,63.73
2019-03-28T12:40:55.758Z,64.40
2019-03-28T12:41:55.761Z,63.35
2019-03-28T12:42:55.755Z,63.73
2019-03-28T12:43:55.772Z,63.64
2019-03-28T12:44:57.269Z,63.35
2019-03-28T12:45:55.744Z,63.67
2019-03-28T12:46:55.739Z,63.73
2019-03-28T12:47:55.736Z,63.35
2019-03-28T12:48:55.731Z,63.76
2019-03-28T12:49:55.726Z,63.57
2019-03-28T12:50:59.156Z,63.10
2019-03-28T12:51:55.721Z,62.52